Terminal Aerodrome Forecast
Issued by NWS Quad Cities IA IL

Home | Current Version | Previous Version | Text Only | Print | Product List | Glossary On
Versions: 1 2 3 4 5 6 7 8 9 10 11 12 13 14 15 16 17 18 19 20 21 22 23 24
000
FTUS43 KDVN 181720
TAFDBQ
TAF
KDBQ 181720Z 1818/1918 07012KT P6SM SCT060 BKN150
     FM190500 06006KT P6SM BKN020
     FM190900 02005KT 3SM BR OVC007
     FM191500 36005KT P6SM BKN025=

USA.gov is the U.S. government's official web portal to all federal, state and local government web resources and services.